createdAt,value
2023-01-18T00:01:10.133Z,-1.00
2023-01-18T00:03:38.118Z,-1.00
2023-01-18T00:06:07.226Z,-1.00
2023-01-18T00:08:35.195Z,-1.10
2023-01-18T00:11:09.923Z,-1.10
2023-01-18T00:13:37.182Z,-1.20
2023-01-18T00:16:06.044Z,-1.20
2023-01-18T00:18:35.792Z,-1.20
2023-01-18T00:21:04.428Z,-1.20
2023-01-18T00:23:32.332Z,-1.20
2023-01-18T00:26:07.715Z,-1.20
2023-01-18T00:28:34.934Z,-1.20
2023-01-18T00:31:01.577Z,-1.20
2023-01-18T00:33:28.176Z,-1.20
2023-01-18T00:36:01.188Z,-1.20
2023-01-18T00:38:28.723Z,-1.20
2023-01-18T00:40:56.012Z,-1.20
2023-01-18T00:43:38.651Z,-1.20
2023-01-18T00:46:13.204Z,-1.20
2023-01-18T00:48:41.360Z,-1.20
2023-01-18T00:51:09.466Z,-1.10
2023-01-18T00:53:38.284Z,-1.10
2023-01-18T00:56:09.908Z,-1.10
2023-01-18T00:58:39.815Z,-1.00
2023-01-18T01:01:07.828Z,-1.00
2023-01-18T01:03:54.741Z,-1.00
2023-01-18T01:06:46.953Z,-1.00
2023-01-18T01:09:20.926Z,-1.00
2023-01-18T01:12:07.091Z,-1.00
2023-01-18T01:14:59.050Z,-1.10
2023-01-18T01:17:44.425Z,-1.10
2023-01-18T01:20:29.957Z,-1.10
2023-01-18T01:23:15.242Z,-1.10
2023-01-18T01:26:00.617Z,-1.20
2023-01-18T01:28:27.836Z,-1.30
2023-01-18T01:31:02.281Z,-1.30
2023-01-18T01:33:30.289Z,-1.30
2023-01-18T01:35:58.011Z,-1.30
2023-01-18T01:38:24.858Z,-1.30
2023-01-18T01:40:59.851Z,-1.30
2023-01-18T01:43:43.359Z,-1.30
2023-01-18T01:46:36.012Z,-1.30
2023-01-18T01:49:17.281Z,-1.30
2023-01-18T01:51:46.762Z,-1.30
2023-01-18T01:54:36.333Z,-1.30
2023-01-18T01:57:18.118Z,-1.20
2023-01-18T01:59:52.299Z,-1.20
2023-01-18T02:02:19.236Z,-1.20
2023-01-18T02:04:46.413Z,-1.10
2023-01-18T02:07:13.587Z,-1.10
2023-01-18T02:09:41.018Z,-1.20
2023-01-18T02:12:07.667Z,-1.20
2023-01-18T02:14:34.230Z,-1.10
2023-01-18T02:17:28.159Z,-1.20
2023-01-18T02:20:19.775Z,-1.20
2023-01-18T02:23:25.542Z,-1.20
2023-01-18T02:26:29.224Z,-1.20
2023-01-18T02:29:18.637Z,-1.20
2023-01-18T02:31:56.251Z,-1.20
2023-01-18T02:34:50.269Z,-1.20
2023-01-18T02:37:26.831Z,-1.20
2023-01-18T02:40:14.548Z,-1.20
2023-01-18T02:43:02.237Z,-1.30
2023-01-18T02:46:02.182Z,-1.30
2023-01-18T02:48:41.573Z,-1.30
2023-01-18T02:51:08.957Z,-1.30
2023-01-18T02:53:40.792Z,-1.40
2023-01-18T02:56:13.190Z,-1.40
2023-01-18T02:58:51.148Z,-1.50
2023-01-18T03:01:48.286Z,-1.50
2023-01-18T03:04:37.886Z,-1.60
2023-01-18T03:07:11.114Z,-1.60
2023-01-18T03:09:39.974Z,-1.60
2023-01-18T03:12:22.872Z,-1.60
2023-01-18T03:15:09.840Z,-1.60
2023-01-18T03:17:39.398Z,-1.60
2023-01-18T03:20:12.187Z,-1.60
2023-01-18T03:23:00.944Z,-1.60
2023-01-18T03:25:41.146Z,-1.60
2023-01-18T03:28:43.998Z,-1.60
2023-01-18T03:31:31.860Z,-1.60
2023-01-18T03:34:14.004Z,-1.50
2023-01-18T03:36:49.218Z,-1.50
2023-01-18T03:39:21.729Z,-1.50
2023-01-18T03:41:53.990Z,-1.60
2023-01-18T03:44:32.756Z,-1.60
2023-01-18T03:46:59.492Z,-1.60
2023-01-18T03:49:27.411Z,-1.70
2023-01-18T03:52:07.102Z,-1.80
2023-01-18T03:54:41.465Z,-1.80
2023-01-18T03:57:31.992Z,-1.80
2023-01-18T04:00:00.598Z,-1.80
2023-01-18T04:02:27.908Z,-1.70
2023-01-18T04:04:57.540Z,-1.70
2023-01-18T04:07:25.831Z,-1.60
2023-01-18T04:09:52.622Z,-1.60
2023-01-18T04:12:19.239Z,-1.70
2023-01-18T04:14:45.867Z,-1.60
2023-01-18T04:17:12.472Z,-1.50
2023-01-18T04:19:40.389Z,-1.40
2023-01-18T04:22:09.787Z,-1.40
2023-01-18T04:24:36.561Z,-1.40
2023-01-18T04:27:03.888Z,-1.40
2023-01-18T04:29:30.592Z,-1.40
2023-01-18T04:31:57.175Z,-1.40
2023-01-18T04:34:23.956Z,-1.40
2023-01-18T04:36:51.660Z,-1.40
2023-01-18T04:39:18.422Z,-1.40
2023-01-18T04:41:45.673Z,-1.40
2023-01-18T04:44:12.767Z,-1.40
2023-01-18T04:46:39.754Z,-1.40
2023-01-18T04:49:10.190Z,-1.50
2023-01-18T04:51:38.134Z,-1.50
2023-01-18T04:54:05.007Z,-1.50
2023-01-18T04:56:31.588Z,-1.50
2023-01-18T04:58:58.203Z,-1.50
2023-01-18T05:01:25.082Z,-1.50
2023-01-18T05:03:53.256Z,-1.50
2023-01-18T05:06:19.919Z,-1.50
2023-01-18T05:08:46.471Z,-1.50
2023-01-18T05:11:15.420Z,-1.40
2023-01-18T05:13:43.048Z,-1.50
2023-01-18T05:16:14.902Z,-1.60
2023-01-18T05:18:41.634Z,-1.50
2023-01-18T05:21:08.286Z,-1.60
2023-01-18T05:23:34.880Z,-1.60
2023-01-18T05:26:01.751Z,-1.60
2023-01-18T05:28:28.754Z,-1.60
2023-01-18T05:30:55.941Z,-1.70
2023-01-18T05:33:23.252Z,-1.60
2023-01-18T05:35:51.710Z,-1.60
2023-01-18T05:38:18.794Z,-1.60
2023-01-18T05:40:48.213Z,-1.60
2023-01-18T05:43:14.782Z,-1.60
2023-01-18T05:45:42.664Z,-1.60
2023-01-18T05:48:10.902Z,-1.60
2023-01-18T05:50:41.612Z,-1.70
2023-01-18T05:53:08.360Z,-1.70
2023-01-18T05:55:35.168Z,-1.70
2023-01-18T05:58:01.842Z,-1.80
2023-01-18T06:00:30.211Z,-1.80
2023-01-18T06:02:57.081Z,-1.80
2023-01-18T06:05:24.578Z,-1.70
2023-01-18T06:07:51.562Z,-1.70
2023-01-18T06:10:18.420Z,-1.70
2023-01-18T06:12:45.673Z,-1.70
2023-01-18T06:15:12.780Z,-1.80
2023-01-18T06:17:40.072Z,-1.80
2023-01-18T06:20:07.280Z,-1.80
2023-01-18T06:22:33.859Z,-1.80
2023-01-18T06:25:00.445Z,-1.80
2023-01-18T06:27:26.992Z,-1.90
2023-01-18T06:29:53.566Z,-1.90
2023-01-18T06:32:20.117Z,-1.90
2023-01-18T06:34:46.668Z,-1.90
2023-01-18T06:37:13.563Z,-1.90
2023-01-18T06:39:40.140Z,-1.80
2023-01-18T06:42:06.904Z,-1.90
2023-01-18T06:44:33.463Z,-1.90
2023-01-18T06:47:00.011Z,-2.00
2023-01-18T06:49:27.027Z,-2.00
2023-01-18T06:51:53.626Z,-2.00
2023-01-18T06:54:20.210Z,-2.00
2023-01-18T06:56:48.112Z,-2.00
2023-01-18T06:59:15.442Z,-1.90
2023-01-18T07:01:42.301Z,-1.90
2023-01-18T07:04:08.993Z,-1.90
2023-01-18T07:06:36.595Z,-1.90
2023-01-18T07:09:07.434Z,-2.00
2023-01-18T07:11:35.637Z,-1.90
2023-01-18T07:14:02.486Z,-1.90
2023-01-18T07:16:30.106Z,-2.00
2023-01-18T07:18:58.479Z,-2.00
2023-01-18T07:21:29.467Z,-2.00
2023-01-18T07:23:57.534Z,-2.00
2023-01-18T07:26:24.664Z,-2.00
2023-01-18T07:28:51.918Z,-2.00
2023-01-18T07:31:18.837Z,-2.00
2023-01-18T07:33:45.473Z,-2.10
2023-01-18T07:36:13.877Z,-2.10
2023-01-18T07:38:40.813Z,-2.00
2023-01-18T07:41:16.882Z,-2.00
2023-01-18T07:43:44.692Z,-2.00
2023-01-18T07:46:15.912Z,-2.00
2023-01-18T07:48:44.468Z,-2.00
2023-01-18T07:51:11.163Z,-2.00
2023-01-18T07:53:38.972Z,-2.00
2023-01-18T07:56:12.585Z,-1.90
2023-01-18T07:58:39.740Z,-1.80
2023-01-18T08:01:11.779Z,-1.80
2023-01-18T08:03:39.302Z,-1.70
2023-01-18T08:06:07.698Z,-1.60
2023-01-18T08:08:35.753Z,-1.60
2023-01-18T08:11:03.944Z,-1.60
2023-01-18T08:13:30.741Z,-1.60
2023-01-18T08:16:01.133Z,-1.70
2023-01-18T08:18:27.881Z,-1.70
2023-01-18T08:20:55.324Z,-1.70
2023-01-18T08:23:22.302Z,-1.60
2023-01-18T08:25:49.588Z,-1.60
2023-01-18T08:28:17.069Z,-1.50
2023-01-18T08:30:46.047Z,-1.50
2023-01-18T08:33:13.056Z,-1.40
2023-01-18T08:35:42.316Z,-1.30
2023-01-18T08:38:09.663Z,-1.30
2023-01-18T08:40:36.616Z,-1.30
2023-01-18T08:43:04.415Z,-1.30
2023-01-18T08:45:31.478Z,-1.20
2023-01-18T08:48:02.410Z,-1.10
2023-01-18T08:50:30.919Z,-1.00
2023-01-18T08:53:00.061Z,-1.00
2023-01-18T08:55:27.754Z,-0.90
2023-01-18T08:57:56.650Z,-0.90
2023-01-18T09:00:26.867Z,-0.90
2023-01-18T09:02:54.051Z,-0.80
2023-01-18T09:05:20.761Z,-0.80
2023-01-18T09:07:47.399Z,-0.80
2023-01-18T09:10:14.158Z,-0.70
2023-01-18T09:12:40.905Z,-0.60
2023-01-18T09:15:08.453Z,-0.50
2023-01-18T09:17:35.517Z,-0.40
2023-01-18T09:20:02.976Z,-0.30
2023-01-18T09:22:29.508Z,-0.30
2023-01-18T09:24:57.470Z,-0.20
2023-01-18T09:27:24.163Z,-0.20
2023-01-18T09:29:52.220Z,-0.10
2023-01-18T09:32:22.273Z,0.00
2023-01-18T09:34:50.630Z,0.10
2023-01-18T09:37:19.118Z,0.20
2023-01-18T09:39:51.773Z,0.30
2023-01-18T09:42:22.054Z,0.50
2023-01-18T09:44:58.770Z,1.20
2023-01-18T09:47:47.154Z,2.80
2023-01-18T09:50:15.104Z,3.40
2023-01-18T09:52:56.098Z,3.90
2023-01-18T09:56:01.158Z,5.40
2023-01-18T09:58:59.396Z,7.10
2023-01-18T10:01:31.607Z,9.00
2023-01-18T10:04:07.744Z,10.20
2023-01-18T10:06:56.347Z,11.30
2023-01-18T10:09:34.123Z,12.00
2023-01-18T10:12:06.713Z,12.40
2023-01-18T10:14:51.361Z,12.90
2023-01-18T10:17:22.842Z,13.40
2023-01-18T10:19:50.550Z,14.20
2023-01-18T10:22:40.263Z,14.40
2023-01-18T10:25:18.725Z,14.20
2023-01-18T10:27:58.794Z,13.20
2023-01-18T10:30:29.029Z,12.60
2023-01-18T10:33:03.569Z,12.00
2023-01-18T10:35:36.455Z,12.40
2023-01-18T10:38:07.606Z,13.50
2023-01-18T10:40:35.793Z,14.30
2023-01-18T10:43:04.345Z,14.70
2023-01-18T10:45:34.013Z,13.90
2023-01-18T10:48:25.847Z,13.40
2023-01-18T10:50:55.202Z,12.90
2023-01-18T10:53:27.360Z,12.40
2023-01-18T10:56:12.560Z,12.30
2023-01-18T10:58:50.533Z,12.40
2023-01-18T11:01:24.412Z,12.00
2023-01-18T11:04:06.643Z,12.10
2023-01-18T11:06:55.467Z,12.10
2023-01-18T11:09:51.980Z,12.00
2023-01-18T11:12:41.270Z,10.90
2023-01-18T11:15:13.924Z,10.10
2023-01-18T11:17:44.022Z,10.60
2023-01-18T11:20:20.172Z,11.50
2023-01-18T11:22:59.127Z,12.70
2023-01-18T11:25:34.608Z,12.70
2023-01-18T11:28:02.612Z,11.70
2023-01-18T11:30:29.327Z,9.50
2023-01-18T11:32:59.768Z,7.90
2023-01-18T11:35:35.020Z,6.60
2023-01-18T11:38:03.978Z,5.80
2023-01-18T11:40:32.933Z,5.10
2023-01-18T11:43:22.376Z,4.50
2023-01-18T11:46:02.992Z,4.10
2023-01-18T11:48:48.351Z,4.00
2023-01-18T11:51:51.233Z,3.90
2023-01-18T11:54:51.224Z,3.80
2023-01-18T11:57:17.842Z,3.70
2023-01-18T11:59:46.071Z,3.70
2023-01-18T12:02:48.153Z,3.60
2023-01-18T12:05:36.778Z,3.50
2023-01-18T12:08:24.659Z,3.50
2023-01-18T12:11:17.685Z,3.40
2023-01-18T12:14:01.165Z,3.40
2023-01-18T12:17:12.480Z,3.40
2023-01-18T12:19:50.756Z,3.40
2023-01-18T12:23:01.452Z,3.40
2023-01-18T12:25:46.976Z,3.40
2023-01-18T12:28:37.585Z,3.40
2023-01-18T12:31:22.863Z,3.40
2023-01-18T12:33:58.234Z,3.50
2023-01-18T12:37:01.915Z,3.40
2023-01-18T12:39:40.799Z,3.50
2023-01-18T12:42:24.003Z,3.50
2023-01-18T12:45:05.519Z,3.50
2023-01-18T12:47:39.192Z,3.50
2023-01-18T12:50:28.508Z,3.50
2023-01-18T12:53:00.438Z,3.50
2023-01-18T12:55:31.574Z,3.50
2023-01-18T12:58:00.678Z,3.50
2023-01-18T13:00:40.174Z,3.50
2023-01-18T13:03:15.126Z,3.50
2023-01-18T13:05:59.597Z,3.50
2023-01-18T13:09:00.961Z,3.80
2023-01-18T13:11:32.367Z,5.10
2023-01-18T13:14:13.635Z,6.40
2023-01-18T13:16:57.792Z,7.30
2023-01-18T13:19:34.382Z,8.30
2023-01-18T13:22:22.342Z,9.30
2023-01-18T13:25:37.861Z,9.40
2023-01-18T13:28:17.515Z,8.80
2023-01-18T13:31:01.888Z,8.10
2023-01-18T13:33:38.082Z,8.20
2023-01-18T13:36:08.669Z,8.60
2023-01-18T13:38:58.035Z,8.80
2023-01-18T13:41:30.324Z,9.60
2023-01-18T13:44:32.291Z,10.20
2023-01-18T13:47:01.742Z,10.00
2023-01-18T13:49:44.967Z,9.50
2023-01-18T13:52:33.400Z,9.30
2023-01-18T13:55:05.152Z,8.20
2023-01-18T13:57:33.605Z,7.30
2023-01-18T14:00:02.191Z,6.60
2023-01-18T14:02:41.747Z,6.70
2023-01-18T14:05:17.092Z,6.80
2023-01-18T14:07:47.834Z,7.10
2023-01-18T14:10:36.352Z,7.20
2023-01-18T14:13:06.180Z,7.10
2023-01-18T14:15:41.901Z,7.00
2023-01-18T14:18:26.143Z,6.90
2023-01-18T14:21:11.019Z,6.50
2023-01-18T14:23:46.468Z,6.10
2023-01-18T14:26:18.087Z,6.00
2023-01-18T14:29:00.681Z,5.90
2023-01-18T14:31:32.655Z,6.00
2023-01-18T14:34:35.665Z,6.00
2023-01-18T14:37:03.690Z,5.70
2023-01-18T14:39:32.414Z,5.40
2023-01-18T14:42:02.887Z,5.40
2023-01-18T14:44:56.787Z,5.30
2023-01-18T14:47:29.792Z,5.20
2023-01-18T14:49:56.489Z,4.90
2023-01-18T14:52:30.792Z,4.70
2023-01-18T14:54:57.503Z,4.50
2023-01-18T14:57:24.432Z,4.30
2023-01-18T15:00:02.644Z,4.10
2023-01-18T15:02:37.498Z,3.90
2023-01-18T15:05:19.795Z,3.70
2023-01-18T15:07:56.152Z,3.60
2023-01-18T15:10:24.119Z,3.50
2023-01-18T15:12:54.149Z,3.40
2023-01-18T15:15:31.305Z,3.30
2023-01-18T15:18:06.484Z,3.20
2023-01-18T15:20:33.775Z,3.10
2023-01-18T15:23:00.868Z,3.10
2023-01-18T15:25:31.934Z,3.00
2023-01-18T15:28:09.010Z,2.90
2023-01-18T15:30:53.081Z,2.90
2023-01-18T15:33:21.565Z,2.80
2023-01-18T15:35:53.083Z,2.70
2023-01-18T15:38:20.338Z,2.60
2023-01-18T15:40:59.327Z,2.60
2023-01-18T15:43:36.132Z,2.50
2023-01-18T15:46:07.414Z,2.50
2023-01-18T15:48:46.585Z,2.50
2023-01-18T15:51:13.330Z,2.40
2023-01-18T15:53:49.100Z,2.30
2023-01-18T15:56:18.492Z,2.20
2023-01-18T15:58:49.793Z,2.20
2023-01-18T16:01:24.749Z,2.20
2023-01-18T16:03:51.378Z,2.10
2023-01-18T16:06:32.066Z,2.10
2023-01-18T16:09:12.902Z,2.10
2023-01-18T16:11:53.931Z,2.10
2023-01-18T16:14:29.211Z,2.10
2023-01-18T16:17:05.444Z,2.00
2023-01-18T16:19:40.236Z,2.00
2023-01-18T16:22:19.358Z,2.00
2023-01-18T16:24:49.546Z,1.90
2023-01-18T16:27:19.017Z,1.90
2023-01-18T16:29:52.161Z,1.90
2023-01-18T16:32:38.986Z,1.90
2023-01-18T16:35:09.979Z,1.90
2023-01-18T16:37:38.354Z,1.90
2023-01-18T16:40:09.373Z,1.80
2023-01-18T16:42:54.383Z,1.80
2023-01-18T16:45:21.592Z,1.80
2023-01-18T16:47:48.898Z,1.80
2023-01-18T16:50:16.624Z,1.80
2023-01-18T16:52:43.272Z,1.80
2023-01-18T16:55:15.896Z,1.80
2023-01-18T16:57:43.018Z,1.90
2023-01-18T17:00:35.619Z,1.90
2023-01-18T17:03:02.645Z,1.90
2023-01-18T17:05:29.873Z,1.90
2023-01-18T17:07:56.818Z,1.80
2023-01-18T17:10:36.145Z,1.80
2023-01-18T17:13:02.939Z,1.80
2023-01-18T17:15:32.291Z,1.80
2023-01-18T17:17:58.903Z,1.80
2023-01-18T17:20:27.118Z,1.80
2023-01-18T17:22:54.397Z,1.70
2023-01-18T17:25:22.062Z,1.70
2023-01-18T17:27:50.149Z,1.70
2023-01-18T17:30:20.121Z,1.70
2023-01-18T17:32:47.303Z,1.70
2023-01-18T17:35:16.697Z,1.60
2023-01-18T17:37:43.341Z,1.60
2023-01-18T17:40:17.224Z,1.60
2023-01-18T17:42:46.764Z,1.60
2023-01-18T17:45:16.622Z,1.50
2023-01-18T17:47:43.698Z,1.50
2023-01-18T17:50:17.387Z,1.60
2023-01-18T17:52:44.054Z,1.60
2023-01-18T17:55:13.029Z,1.60
2023-01-18T17:57:40.302Z,1.60
2023-01-18T18:00:11.630Z,1.60
2023-01-18T18:02:38.231Z,1.60
2023-01-18T18:05:05.539Z,1.60
2023-01-18T18:07:32.290Z,1.60
2023-01-18T18:10:01.072Z,1.70
2023-01-18T18:12:29.362Z,1.70
2023-01-18T18:14:55.996Z,1.70
2023-01-18T18:17:24.653Z,1.80
2023-01-18T18:19:51.349Z,1.90
2023-01-18T18:22:19.670Z,1.90
2023-01-18T18:24:47.535Z,2.00
2023-01-18T18:27:14.906Z,2.00
2023-01-18T18:29:41.541Z,2.10
2023-01-18T18:32:08.795Z,2.10
2023-01-18T18:34:36.528Z,2.20
2023-01-18T18:37:04.811Z,2.20
2023-01-18T18:39:32.383Z,2.20
2023-01-18T18:41:59.638Z,2.20
2023-01-18T18:44:26.213Z,2.30
2023-01-18T18:46:52.822Z,2.30
2023-01-18T18:49:19.448Z,2.30
2023-01-18T18:51:46.142Z,2.30
2023-01-18T18:54:12.802Z,2.30
2023-01-18T18:56:39.391Z,2.30
2023-01-18T18:59:05.986Z,2.30
2023-01-18T19:01:32.776Z,2.30
2023-01-18T19:03:59.991Z,2.30
2023-01-18T19:06:26.983Z,2.30
2023-01-18T19:08:54.282Z,2.30
2023-01-18T19:11:21.204Z,2.30
2023-01-18T19:13:49.404Z,2.40
2023-01-18T19:16:17.109Z,2.30
2023-01-18T19:18:43.827Z,2.30
2023-01-18T19:21:11.011Z,2.30
2023-01-18T19:23:37.583Z,2.30
2023-01-18T19:26:04.230Z,2.30
2023-01-18T19:28:30.805Z,2.30
2023-01-18T19:31:05.399Z,2.30
2023-01-18T19:33:32.174Z,2.30
2023-01-18T19:36:08.274Z,2.30
2023-01-18T19:38:38.796Z,2.30
2023-01-18T19:41:10.586Z,2.30
2023-01-18T19:43:38.614Z,2.40
2023-01-18T19:46:06.490Z,2.40
2023-01-18T19:48:33.309Z,2.40
2023-01-18T19:51:21.160Z,2.40
2023-01-18T19:53:48.144Z,2.50
2023-01-18T19:56:14.715Z,2.50
2023-01-18T19:58:41.328Z,2.50
2023-01-18T20:01:26.538Z,2.50
2023-01-18T20:03:57.075Z,2.50
2023-01-18T20:06:23.674Z,2.60
2023-01-18T20:08:53.936Z,2.50
2023-01-18T20:11:20.551Z,2.60
2023-01-18T20:13:49.002Z,2.60
2023-01-18T20:16:15.847Z,2.60
2023-01-18T20:18:42.522Z,2.60
2023-01-18T20:21:11.958Z,2.60
2023-01-18T20:23:38.737Z,2.60
2023-01-18T20:26:05.811Z,2.60
2023-01-18T20:28:33.605Z,2.70
2023-01-18T20:31:02.752Z,2.70
2023-01-18T20:33:29.510Z,2.70
2023-01-18T20:35:56.052Z,2.70
2023-01-18T20:38:22.737Z,2.70
2023-01-18T20:40:49.797Z,2.70
2023-01-18T20:43:16.553Z,2.70
2023-01-18T20:45:43.256Z,2.80
2023-01-18T20:48:09.877Z,2.80
2023-01-18T20:50:38.260Z,2.80
2023-01-18T20:53:04.833Z,2.80
2023-01-18T20:55:31.431Z,2.80
2023-01-18T20:57:57.997Z,2.80
2023-01-18T21:00:25.137Z,2.70
2023-01-18T21:02:51.698Z,2.80
2023-01-18T21:05:18.330Z,2.80
2023-01-18T21:07:44.903Z,2.80
2023-01-18T21:10:11.901Z,2.90
2023-01-18T21:12:38.522Z,2.90
2023-01-18T21:15:08.908Z,2.90
2023-01-18T21:17:36.017Z,2.90
2023-01-18T21:20:03.150Z,2.90
2023-01-18T21:22:29.694Z,3.00
2023-01-18T21:24:57.266Z,3.00
2023-01-18T21:27:27.320Z,3.00
2023-01-18T21:29:54.242Z,3.00
2023-01-18T21:32:22.618Z,3.00
2023-01-18T21:34:49.272Z,3.00
2023-01-18T21:37:15.906Z,3.00
2023-01-18T21:39:42.532Z,3.00
2023-01-18T21:42:29.228Z,2.90
2023-01-18T21:45:14.712Z,2.90
2023-01-18T21:47:41.306Z,2.90
2023-01-18T21:50:27.417Z,2.90
2023-01-18T21:53:12.710Z,2.90
2023-01-18T21:55:40.218Z,2.90
2023-01-18T21:58:25.322Z,3.00
2023-01-18T22:00:52.178Z,3.00
2023-01-18T22:03:18.969Z,3.00
2023-01-18T22:05:45.574Z,3.10
2023-01-18T22:08:12.261Z,3.10
2023-01-18T22:10:38.888Z,3.10
2023-01-18T22:13:05.556Z,3.10
2023-01-18T22:15:32.206Z,3.20
2023-01-18T22:17:59.310Z,3.20
2023-01-18T22:20:26.200Z,3.20
2023-01-18T22:22:54.240Z,3.20
2023-01-18T22:25:20.854Z,3.20
2023-01-18T22:27:47.891Z,3.20
2023-01-18T22:30:14.613Z,3.20
2023-01-18T22:32:41.230Z,3.20
2023-01-18T22:35:08.069Z,3.20
2023-01-18T22:37:34.723Z,3.30
2023-01-18T22:40:01.373Z,3.30
2023-01-18T22:42:28.350Z,3.30
2023-01-18T22:44:54.965Z,3.30
2023-01-18T22:47:21.648Z,3.30
2023-01-18T22:49:48.255Z,3.30
2023-01-18T22:52:14.951Z,3.30
2023-01-18T22:54:42.456Z,3.30
2023-01-18T22:57:09.192Z,3.20
2023-01-18T22:59:35.803Z,3.20
2023-01-18T23:02:02.550Z,3.10
2023-01-18T23:04:29.496Z,3.10
2023-01-18T23:07:00.612Z,3.10
2023-01-18T23:09:27.451Z,3.20
2023-01-18T23:11:54.086Z,3.20
2023-01-18T23:14:39.203Z,3.20
2023-01-18T23:17:24.384Z,3.20
2023-01-18T23:19:50.997Z,3.30
2023-01-18T23:22:17.624Z,3.30
2023-01-18T23:24:44.243Z,3.30
2023-01-18T23:27:10.858Z,3.30
2023-01-18T23:29:39.108Z,3.30
2023-01-18T23:32:06.277Z,3.30
2023-01-18T23:34:33.009Z,3.30
2023-01-18T23:36:59.550Z,3.30
2023-01-18T23:39:44.889Z,3.30
2023-01-18T23:42:30.192Z,3.30
2023-01-18T23:45:15.621Z,3.30
2023-01-18T23:48:01.348Z,3.30
2023-01-18T23:50:46.656Z,3.30
2023-01-18T23:53:32.035Z,3.30
2023-01-18T23:55:59.508Z,3.30
2023-01-18T23:58:26.555Z,3.30
